2021-09-18 - 19:49:00

SR: 0509 - SS: 1737

RWY: 07


OBSERVATION: n/a

RVR Mean 1 min: (Runway Visual Range)
A: P2000 - B: P2000 - C: P2000
RVR Mean 10 min:
A: P2000 - B: P2000 - C: P2000
WARNING: n/a
W25: 020-110(060-03kt) 02kt-04kt
W07: 050-070(060-05kt) 04kt-06kt
OTHER: n/a

QFE: (tatsächlicher Luftdruck) 1011.4 hPa = 29.85 inHg
QNH:(Luftdruck auf Meereshöhe) 1017.2 hPa = 30.03 inHg
Temperatur: 16.0 °C
Dew point(Taupunkt): 13.3 °C

METAR:  00773 SADL31 EDDG 181920 METAR EDDG 181920Z 06003KT 020V090 9999 BKN046 16/13 Q1017 NOSIG= 
METAR (aus weather.noaa.gov):
2021/09/18 19:20 EDDG 181920Z 06003KT 020V090 9999 BKN046 16/13 Q1017 NOSIG

TAF (aus weather.noaa.gov):
2021/09/18 18:27 TAF EDDG 181700Z 1818/1918 07005KT 9999 SCT040 TEMPO 1818/1824 VRB03KT PROB30 TEMPO 1902/1907 4000 BR BKN005
NOWCAST
847
FODL44 EDDG 181900
FODL44 EDDG 2109181905
# Nowcasting EDDG 18.09.2021 19:05 UTC
Parameter/Stunde20212223000102
Windrichtung070070070070070070070
Windgeschwindigkeit3333334
Böen--------------
Lufttemperatur15141414131313
Taupunkt12121212121212
Belagstemperatur13121212111111
Wetter-vorherrschend--------------
QNH1017101710171017101610161016
Wind in 5000 ft110/10120/10130/10130/10120/10120/10110/10
Wind in 3000 ft100/10110/10110/10110/10100/10090/10100/15
Wind in 2000 ft100/10100/15100/15110/15110/15120/15130/10
Wind in 1000 ft090/15090/15100/15100/15100/20100/20110/15